sensor_id;sensor_type;location;lat;lon;timestamp;P1;durP1;ratioP1;P2;durP2;ratioP2
13057;SDS011;6595;49.578;11.012;2022-11-20T00:00:24;24.6;;;17.6;;
13057;SDS011;6595;49.578;11.012;2022-11-20T00:02:23;25.1;;;17.7;;
13057;SDS011;6595;49.578;11.012;2022-11-20T00:04:23;24.7;;;17.2;;
13057;SDS011;6595;49.578;11.012;2022-11-20T00:06:24;24.6;;;17.8;;
13057;SDS011;6595;49.578;11.012;2022-11-20T00:08:23;26.4;;;18.3;;
13057;SDS011;6595;49.578;11.012;2022-11-20T00:10:24;26.4;;;18.3;;
13057;SDS011;6595;49.578;11.012;2022-11-20T00:12:23;24.1;;;17.7;;
13057;SDS011;6595;49.578;11.012;2022-11-20T00:14:24;26.5;;;18.5;;
13057;SDS011;6595;49.578;11.012;2022-11-20T00:16:24;25.2;;;17.4;;
13057;SDS011;6595;49.578;11.012;2022-11-20T00:18:23;25.2;;;17.4;;
13057;SDS011;6595;49.578;11.012;2022-11-20T00:20:24;25.6;;;18.4;;
13057;SDS011;6595;49.578;11.012;2022-11-20T00:22:23;26.8;;;18.4;;
13057;SDS011;6595;49.578;11.012;2022-11-20T00:24:23;27.0;;;17.9;;
13057;SDS011;6595;49.578;11.012;2022-11-20T00:26:25;26.8;;;17.9;;
13057;SDS011;6595;49.578;11.012;2022-11-20T00:28:24;26.8;;;17.9;;
13057;SDS011;6595;49.578;11.012;2022-11-20T00:30:23;25.7;;;17.9;;
13057;SDS011;6595;49.578;11.012;2022-11-20T00:32:24;22.8;;;16.5;;
13057;SDS011;6595;49.578;11.012;2022-11-20T00:34:23;25.3;;;17.2;;
13057;SDS011;6595;49.578;11.012;2022-11-20T00:36:24;23.6;;;17.2;;
13057;SDS011;6595;49.578;11.012;2022-11-20T00:38:23;23.6;;;17.2;;
13057;SDS011;6595;49.578;11.012;2022-11-20T00:40:23;22.0;;;16.2;;
13057;SDS011;6595;49.578;11.012;2022-11-20T00:42:24;22.0;;;16.2;;
13057;SDS011;6595;49.578;11.012;2022-11-20T00:44:23;21.2;;;16.0;;
13057;SDS011;6595;49.578;11.012;2022-11-20T00:46:24;21.2;;;16.0;;
13057;SDS011;6595;49.578;11.012;2022-11-20T00:48:24;23.3;;;16.9;;
13057;SDS011;6595;49.578;11.012;2022-11-20T00:50:24;22.4;;;16.3;;
13057;SDS011;6595;49.578;11.012;2022-11-20T00:52:23;22.9;;;16.0;;
13057;SDS011;6595;49.578;11.012;2022-11-20T00:54:24;22.9;;;16.0;;
13057;SDS011;6595;49.578;11.012;2022-11-20T00:56:24;21.1;;;15.7;;
13057;SDS011;6595;49.578;11.012;2022-11-20T00:58:24;21.1;;;15.7;;
13057;SDS011;6595;49.578;11.012;2022-11-20T01:00:24;23.4;;;16.2;;
13057;SDS011;6595;49.578;11.012;2022-11-20T01:02:23;23.7;;;17.0;;
13057;SDS011;6595;49.578;11.012;2022-11-20T01:04:23;24.3;;;17.5;;
13057;SDS011;6595;49.578;11.012;2022-11-20T01:06:24;24.3;;;17.7;;
13057;SDS011;6595;49.578;11.012;2022-11-20T01:08:24;24.3;;;17.7;;
13057;SDS011;6595;49.578;11.012;2022-11-20T01:10:23;23.3;;;16.7;;
13057;SDS011;6595;49.578;11.012;2022-11-20T01:12:24;24.0;;;17.1;;
13057;SDS011;6595;49.578;11.012;2022-11-20T01:14:23;24.7;;;17.7;;
13057;SDS011;6595;49.578;11.012;2022-11-20T01:16:25;24.7;;;17.7;;
13057;SDS011;6595;49.578;11.012;2022-11-20T01:18:24;24.7;;;17.7;;
13057;SDS011;6595;49.578;11.012;2022-11-20T01:20:23;23.1;;;16.5;;
13057;SDS011;6595;49.578;11.012;2022-11-20T01:22:24;23.1;;;16.5;;
13057;SDS011;6595;49.578;11.012;2022-11-20T01:24:24;24.7;;;17.2;;
13057;SDS011;6595;49.578;11.012;2022-11-20T01:26:24;24.7;;;17.2;;
13057;SDS011;6595;49.578;11.012;2022-11-20T01:28:24;22.9;;;17.3;;
13057;SDS011;6595;49.578;11.012;2022-11-20T01:30:23;25.9;;;17.4;;
13057;SDS011;6595;49.578;11.012;2022-11-20T01:32:24;23.6;;;16.8;;
13057;SDS011;6595;49.578;11.012;2022-11-20T01:34:24;24.5;;;17.4;;
13057;SDS011;6595;49.578;11.012;2022-11-20T01:36:24;24.5;;;17.4;;
13057;SDS011;6595;49.578;11.012;2022-11-20T01:38:23;24.2;;;17.5;;
13057;SDS011;6595;49.578;11.012;2022-11-20T01:40:24;23.3;;;17.3;;
13057;SDS011;6595;49.578;11.012;2022-11-20T01:42:23;23.3;;;17.3;;
13057;SDS011;6595;49.578;11.012;2022-11-20T01:46:23;23.7;;;17.4;;
13057;SDS011;6595;49.578;11.012;2022-11-20T01:48:23;25.2;;;17.2;;
13057;SDS011;6595;49.578;11.012;2022-11-20T01:50:24;25.0;;;17.8;;
13057;SDS011;6595;49.578;11.012;2022-11-20T01:52:24;25.1;;;17.9;;
13057;SDS011;6595;49.578;11.012;2022-11-20T01:54:24;25.1;;;17.9;;
13057;SDS011;6595;49.578;11.012;2022-11-20T01:56:24;25.8;;;18.0;;
13057;SDS011;6595;49.578;11.012;2022-11-20T01:58:25;24.4;;;17.3;;
13057;SDS011;6595;49.578;11.012;2022-11-20T02:00:24;24.4;;;17.3;;
13057;SDS011;6595;49.578;11.012;2022-11-20T02:02:23;26.0;;;17.4;;
13057;SDS011;6595;49.578;11.012;2022-11-20T02:04:23;23.5;;;17.0;;
13057;SDS011;6595;49.578;11.012;2022-11-20T02:06:24;23.5;;;17.0;;
13057;SDS011;6595;49.578;11.012;2022-11-20T02:08:23;26.1;;;17.6;;
13057;SDS011;6595;49.578;11.012;2022-11-20T02:10:23;25.6;;;17.7;;
13057;SDS011;6595;49.578;11.012;2022-11-20T02:12:23;26.1;;;18.5;;
13057;SDS011;6595;49.578;11.012;2022-11-20T02:14:24;26.1;;;18.5;;
13057;SDS011;6595;49.578;11.012;2022-11-20T02:16:24;26.7;;;17.8;;
13057;SDS011;6595;49.578;11.012;2022-11-20T02:18:23;25.5;;;17.8;;
13057;SDS011;6595;49.578;11.012;2022-11-20T02:20:24;25.7;;;17.2;;
13057;SDS011;6595;49.578;11.012;2022-11-20T02:22:24;25.1;;;17.4;;
13057;SDS011;6595;49.578;11.012;2022-11-20T02:24:24;25.1;;;17.4;;
13057;SDS011;6595;49.578;11.012;2022-11-20T02:26:23;25.9;;;17.2;;
13057;SDS011;6595;49.578;11.012;2022-11-20T02:28:23;25.5;;;17.3;;
13057;SDS011;6595;49.578;11.012;2022-11-20T02:30:23;22.4;;;16.9;;
13057;SDS011;6595;49.578;11.012;2022-11-20T02:32:25;22.4;;;16.9;;
13057;SDS011;6595;49.578;11.012;2022-11-20T02:34:24;24.6;;;17.2;;
13057;SDS011;6595;49.578;11.012;2022-11-20T02:36:24;25.9;;;17.2;;
13057;SDS011;6595;49.578;11.012;2022-11-20T02:38:23;26.6;;;17.8;;
13057;SDS011;6595;49.578;11.012;2022-11-20T02:40:24;26.5;;;18.5;;
13057;SDS011;6595;49.578;11.012;2022-11-20T02:42:24;26.7;;;18.2;;
13057;SDS011;6595;49.578;11.012;2022-11-20T02:44:23;26.7;;;18.2;;
13057;SDS011;6595;49.578;11.012;2022-11-20T02:46:24;26.9;;;17.9;;
13057;SDS011;6595;49.578;11.012;2022-11-20T02:48:23;27.0;;;18.3;;
13057;SDS011;6595;49.578;11.012;2022-11-20T02:50:24;28.3;;;18.7;;
13057;SDS011;6595;49.578;11.012;2022-11-20T02:52:23;28.3;;;18.7;;
13057;SDS011;6595;49.578;11.012;2022-11-20T02:54:24;25.5;;;18.4;;
13057;SDS011;6595;49.578;11.012;2022-11-20T02:56:23;28.5;;;18.6;;
13057;SDS011;6595;49.578;11.012;2022-11-20T02:58:23;25.7;;;18.1;;
13057;SDS011;6595;49.578;11.012;2022-11-20T03:00:24;26.8;;;17.8;;
13057;SDS011;6595;49.578;11.012;2022-11-20T03:02:23;26.8;;;17.8;;
13057;SDS011;6595;49.578;11.012;2022-11-20T03:04:24;25.3;;;17.4;;
13057;SDS011;6595;49.578;11.012;2022-11-20T03:06:24;25.1;;;17.9;;
13057;SDS011;6595;49.578;11.012;2022-11-20T03:08:24;26.6;;;18.1;;
13057;SDS011;6595;49.578;11.012;2022-11-20T03:10:23;26.6;;;18.1;;
13057;SDS011;6595;49.578;11.012;2022-11-20T03:12:23;28.0;;;18.7;;
13057;SDS011;6595;49.578;11.012;2022-11-20T03:14:24;26.5;;;18.3;;
13057;SDS011;6595;49.578;11.012;2022-11-20T03:16:24;26.6;;;18.5;;
13057;SDS011;6595;49.578;11.012;2022-11-20T03:18:23;26.6;;;18.5;;
13057;SDS011;6595;49.578;11.012;2022-11-20T03:20:23;26.8;;;18.4;;
13057;SDS011;6595;49.578;11.012;2022-11-20T03:22:23;28.1;;;18.8;;
13057;SDS011;6595;49.578;11.012;2022-11-20T03:24:24;26.3;;;17.9;;
13057;SDS011;6595;49.578;11.012;2022-11-20T03:26:24;26.2;;;18.7;;
13057;SDS011;6595;49.578;11.012;2022-11-20T03:28:24;27.9;;;18.8;;
13057;SDS011;6595;49.578;11.012;2022-11-20T03:30:23;25.4;;;18.2;;
13057;SDS011;6595;49.578;11.012;2022-11-20T03:32:24;25.4;;;18.2;;
13057;SDS011;6595;49.578;11.012;2022-11-20T03:34:24;26.5;;;18.2;;
13057;SDS011;6595;49.578;11.012;2022-11-20T03:36:23;26.8;;;18.4;;
13057;SDS011;6595;49.578;11.012;2022-11-20T03:38:24;29.2;;;19.7;;
13057;SDS011;6595;49.578;11.012;2022-11-20T03:40:23;31.3;;;20.3;;
13057;SDS011;6595;49.578;11.012;2022-11-20T03:42:24;31.3;;;20.3;;
13057;SDS011;6595;49.578;11.012;2022-11-20T03:44:23;31.0;;;20.1;;
13057;SDS011;6595;49.578;11.012;2022-11-20T03:46:24;31.4;;;19.9;;
13057;SDS011;6595;49.578;11.012;2022-11-20T03:48:23;33.1;;;20.7;;
13057;SDS011;6595;49.578;11.012;2022-11-20T03:50:23;33.1;;;20.7;;
13057;SDS011;6595;49.578;11.012;2022-11-20T03:52:24;29.5;;;19.6;;
13057;SDS011;6595;49.578;11.012;2022-11-20T03:54:23;30.6;;;20.5;;
13057;SDS011;6595;49.578;11.012;2022-11-20T03:56:26;29.4;;;20.7;;
13057;SDS011;6595;49.578;11.012;2022-11-20T03:58:23;29.0;;;19.5;;
13057;SDS011;6595;49.578;11.012;2022-11-20T04:00:23;29.0;;;19.5;;
13057;SDS011;6595;49.578;11.012;2022-11-20T04:02:23;32.6;;;20.6;;
13057;SDS011;6595;49.578;11.012;2022-11-20T04:04:23;32.6;;;20.6;;
13057;SDS011;6595;49.578;11.012;2022-11-20T04:06:24;30.0;;;20.1;;
13057;SDS011;6595;49.578;11.012;2022-11-20T04:08:23;30.0;;;20.0;;
13057;SDS011;6595;49.578;11.012;2022-11-20T04:10:23;31.3;;;20.3;;
13057;SDS011;6595;49.578;11.012;2022-11-20T04:12:23;30.8;;;20.1;;
13057;SDS011;6595;49.578;11.012;2022-11-20T04:14:24;30.8;;;20.1;;
13057;SDS011;6595;49.578;11.012;2022-11-20T04:16:24;29.4;;;19.4;;
13057;SDS011;6595;49.578;11.012;2022-11-20T04:18:23;29.4;;;19.4;;
13057;SDS011;6595;49.578;11.012;2022-11-20T04:20:23;30.9;;;19.9;;
13057;SDS011;6595;49.578;11.012;2022-11-20T04:22:24;32.0;;;20.5;;
13057;SDS011;6595;49.578;11.012;2022-11-20T04:24:23;34.1;;;20.9;;
13057;SDS011;6595;49.578;11.012;2022-11-20T04:26:24;34.1;;;20.9;;
13057;SDS011;6595;49.578;11.012;2022-11-20T04:28:23;34.5;;;21.2;;
13057;SDS011;6595;49.578;11.012;2022-11-20T04:30:24;32.5;;;21.0;;
13057;SDS011;6595;49.578;11.012;2022-11-20T04:32:23;35.6;;;20.8;;
13057;SDS011;6595;49.578;11.012;2022-11-20T04:34:23;35.6;;;20.8;;
13057;SDS011;6595;49.578;11.012;2022-11-20T04:36:24;35.1;;;20.6;;
13057;SDS011;6595;49.578;11.012;2022-11-20T04:38:24;35.1;;;20.6;;
13057;SDS011;6595;49.578;11.012;2022-11-20T04:40:23;33.0;;;20.3;;
13057;SDS011;6595;49.578;11.012;2022-11-20T04:42:24;34.7;;;20.9;;
13057;SDS011;6595;49.578;11.012;2022-11-20T04:44:23;33.7;;;20.5;;
13057;SDS011;6595;49.578;11.012;2022-11-20T04:46:24;32.3;;;19.9;;
13057;SDS011;6595;49.578;11.012;2022-11-20T04:48:24;32.3;;;19.9;;
13057;SDS011;6595;49.578;11.012;2022-11-20T04:50:24;33.7;;;19.9;;
13057;SDS011;6595;49.578;11.012;2022-11-20T04:52:23;33.6;;;20.8;;
13057;SDS011;6595;49.578;11.012;2022-11-20T04:54:24;33.6;;;20.8;;
13057;SDS011;6595;49.578;11.012;2022-11-20T04:56:23;34.4;;;20.5;;
13057;SDS011;6595;49.578;11.012;2022-11-20T04:58:24;34.4;;;20.5;;
13057;SDS011;6595;49.578;11.012;2022-11-20T05:00:24;36.1;;;20.8;;
13057;SDS011;6595;49.578;11.012;2022-11-20T05:02:23;32.5;;;20.6;;
13057;SDS011;6595;49.578;11.012;2022-11-20T05:04:23;34.5;;;20.4;;
13057;SDS011;6595;49.578;11.012;2022-11-20T05:06:23;36.8;;;20.8;;
13057;SDS011;6595;49.578;11.012;2022-11-20T05:08:24;36.8;;;20.8;;
13057;SDS011;6595;49.578;11.012;2022-11-20T05:10:23;33.8;;;20.6;;
13057;SDS011;6595;49.578;11.012;2022-11-20T05:12:24;33.5;;;20.2;;
13057;SDS011;6595;49.578;11.012;2022-11-20T05:14:24;34.9;;;20.1;;
13057;SDS011;6595;49.578;11.012;2022-11-20T05:16:24;33.6;;;20.7;;
13057;SDS011;6595;49.578;11.012;2022-11-20T05:18:24;33.6;;;20.7;;
13057;SDS011;6595;49.578;11.012;2022-11-20T05:20:23;36.9;;;20.5;;
13057;SDS011;6595;49.578;11.012;2022-11-20T05:22:24;34.3;;;20.0;;
13057;SDS011;6595;49.578;11.012;2022-11-20T05:24:24;35.7;;;21.2;;
13057;SDS011;6595;49.578;11.012;2022-11-20T05:26:23;35.7;;;21.2;;
13057;SDS011;6595;49.578;11.012;2022-11-20T05:28:23;32.5;;;19.7;;
13057;SDS011;6595;49.578;11.012;2022-11-20T05:30:23;33.7;;;20.4;;
13057;SDS011;6595;49.578;11.012;2022-11-20T05:32:24;35.9;;;20.9;;
13057;SDS011;6595;49.578;11.012;2022-11-20T05:34:24;36.1;;;19.9;;
13057;SDS011;6595;49.578;11.012;2022-11-20T05:36:24;36.1;;;19.9;;
13057;SDS011;6595;49.578;11.012;2022-11-20T05:38:24;35.2;;;19.9;;
13057;SDS011;6595;49.578;11.012;2022-11-20T05:40:24;34.8;;;20.1;;
13057;SDS011;6595;49.578;11.012;2022-11-20T05:42:23;33.5;;;20.1;;
13057;SDS011;6595;49.578;11.012;2022-11-20T05:44:24;33.5;;;20.1;;
13057;SDS011;6595;49.578;11.012;2022-11-20T05:46:24;32.1;;;19.8;;
13057;SDS011;6595;49.578;11.012;2022-11-20T05:48:23;36.0;;;20.4;;
13057;SDS011;6595;49.578;11.012;2022-11-20T05:50:23;31.9;;;19.4;;
13057;SDS011;6595;49.578;11.012;2022-11-20T05:52:23;31.9;;;19.4;;
13057;SDS011;6595;49.578;11.012;2022-11-20T05:54:23;34.8;;;19.9;;
13057;SDS011;6595;49.578;11.012;2022-11-20T05:56:23;33.1;;;19.9;;
13057;SDS011;6595;49.578;11.012;2022-11-20T05:58:24;36.7;;;20.5;;
13057;SDS011;6595;49.578;11.012;2022-11-20T06:00:23;35.2;;;20.1;;
13057;SDS011;6595;49.578;11.012;2022-11-20T06:02:24;37.2;;;20.5;;
13057;SDS011;6595;49.578;11.012;2022-11-20T06:04:23;37.2;;;20.5;;
13057;SDS011;6595;49.578;11.012;2022-11-20T06:06:24;34.2;;;19.8;;
13057;SDS011;6595;49.578;11.012;2022-11-20T06:08:23;35.8;;;20.2;;
13057;SDS011;6595;49.578;11.012;2022-11-20T06:10:24;35.7;;;21.1;;
13057;SDS011;6595;49.578;11.012;2022-11-20T06:12:23;36.3;;;20.0;;
13057;SDS011;6595;49.578;11.012;2022-11-20T06:14:24;36.3;;;20.0;;
13057;SDS011;6595;49.578;11.012;2022-11-20T06:16:23;37.7;;;20.3;;
13057;SDS011;6595;49.578;11.012;2022-11-20T06:18:25;35.3;;;20.5;;
13057;SDS011;6595;49.578;11.012;2022-11-20T06:20:23;37.1;;;20.7;;
13057;SDS011;6595;49.578;11.012;2022-11-20T06:22:24;37.4;;;21.7;;
13057;SDS011;6595;49.578;11.012;2022-11-20T06:24:23;37.4;;;21.7;;
13057;SDS011;6595;49.578;11.012;2022-11-20T06:26:24;40.9;;;21.1;;
13057;SDS011;6595;49.578;11.012;2022-11-20T06:28:23;41.8;;;21.6;;
13057;SDS011;6595;49.578;11.012;2022-11-20T06:30:24;41.4;;;21.6;;
13057;SDS011;6595;49.578;11.012;2022-11-20T06:32:23;40.8;;;21.1;;
13057;SDS011;6595;49.578;11.012;2022-11-20T06:34:23;40.8;;;21.1;;
13057;SDS011;6595;49.578;11.012;2022-11-20T06:36:23;38.8;;;20.8;;
13057;SDS011;6595;49.578;11.012;2022-11-20T06:38:23;42.0;;;22.1;;
13057;SDS011;6595;49.578;11.012;2022-11-20T06:40:24;40.4;;;21.8;;
13057;SDS011;6595;49.578;11.012;2022-11-20T06:42:23;41.7;;;21.1;;
13057;SDS011;6595;49.578;11.012;2022-11-20T06:44:24;41.7;;;21.1;;
13057;SDS011;6595;49.578;11.012;2022-11-20T06:46:23;42.2;;;22.0;;
13057;SDS011;6595;49.578;11.012;2022-11-20T06:48:25;42.2;;;22.0;;
13057;SDS011;6595;49.578;11.012;2022-11-20T06:50:23;39.1;;;21.6;;
13057;SDS011;6595;49.578;11.012;2022-11-20T06:52:24;39.1;;;21.6;;
13057;SDS011;6595;49.578;11.012;2022-11-20T06:54:24;37.5;;;20.8;;
13057;SDS011;6595;49.578;11.012;2022-11-20T06:56:24;40.8;;;21.0;;
13057;SDS011;6595;49.578;11.012;2022-11-20T06:58:25;42.0;;;21.1;;
13057;SDS011;6595;49.578;11.012;2022-11-20T07:00:23;35.5;;;20.6;;
13057;SDS011;6595;49.578;11.012;2022-11-20T07:02:23;37.3;;;20.3;;
13057;SDS011;6595;49.578;11.012;2022-11-20T07:04:23;37.3;;;20.3;;
13057;SDS011;6595;49.578;11.012;2022-11-20T07:06:24;40.3;;;20.2;;
13057;SDS011;6595;49.578;11.012;2022-11-20T07:08:24;39.9;;;20.6;;
13057;SDS011;6595;49.578;11.012;2022-11-20T07:10:24;40.3;;;21.2;;
13057;SDS011;6595;49.578;11.012;2022-11-20T07:12:23;40.3;;;21.2;;
13057;SDS011;6595;49.578;11.012;2022-11-20T07:14:24;38.5;;;20.8;;
13057;SDS011;6595;49.578;11.012;2022-11-20T07:16:24;38.9;;;20.8;;
13057;SDS011;6595;49.578;11.012;2022-11-20T07:18:23;37.8;;;20.4;;
13057;SDS011;6595;49.578;11.012;2022-11-20T07:20:23;40.8;;;20.9;;
13057;SDS011;6595;49.578;11.012;2022-11-20T07:22:24;40.8;;;20.9;;
13057;SDS011;6595;49.578;11.012;2022-11-20T07:24:24;38.0;;;19.9;;
13057;SDS011;6595;49.578;11.012;2022-11-20T07:26:24;38.1;;;20.9;;
13057;SDS011;6595;49.578;11.012;2022-11-20T07:28:23;38.3;;;20.6;;
13057;SDS011;6595;49.578;11.012;2022-11-20T07:30:24;38.3;;;20.6;;
13057;SDS011;6595;49.578;11.012;2022-11-20T07:32:23;39.2;;;20.4;;
13057;SDS011;6595;49.578;11.012;2022-11-20T07:34:23;37.6;;;19.7;;
13057;SDS011;6595;49.578;11.012;2022-11-20T07:36:24;36.7;;;19.7;;
13057;SDS011;6595;49.578;11.012;2022-11-20T07:38:23;36.7;;;19.7;;
13057;SDS011;6595;49.578;11.012;2022-11-20T07:40:24;34.4;;;19.8;;
13057;SDS011;6595;49.578;11.012;2022-11-20T07:42:23;34.9;;;19.6;;
13057;SDS011;6595;49.578;11.012;2022-11-20T07:44:23;34.9;;;19.6;;
13057;SDS011;6595;49.578;11.012;2022-11-20T07:46:23;32.8;;;18.5;;
13057;SDS011;6595;49.578;11.012;2022-11-20T07:48:24;32.8;;;18.5;;
13057;SDS011;6595;49.578;11.012;2022-11-20T07:50:23;33.3;;;18.8;;
13057;SDS011;6595;49.578;11.012;2022-11-20T07:52:23;31.2;;;17.9;;
13057;SDS011;6595;49.578;11.012;2022-11-20T07:54:24;32.2;;;18.6;;
13057;SDS011;6595;49.578;11.012;2022-11-20T07:56:24;30.9;;;17.7;;
13057;SDS011;6595;49.578;11.012;2022-11-20T07:58:23;29.2;;;17.2;;
13057;SDS011;6595;49.578;11.012;2022-11-20T08:00:24;29.2;;;17.2;;
13057;SDS011;6595;49.578;11.012;2022-11-20T08:02:24;35.4;;;18.4;;
13057;SDS011;6595;49.578;11.012;2022-11-20T08:04:24;35.4;;;18.4;;
13057;SDS011;6595;49.578;11.012;2022-11-20T08:06:23;29.9;;;17.0;;
13057;SDS011;6595;49.578;11.012;2022-11-20T08:08:24;30.9;;;17.5;;
13057;SDS011;6595;49.578;11.012;2022-11-20T08:10:24;30.9;;;17.5;;
13057;SDS011;6595;49.578;11.012;2022-11-20T08:12:24;30.7;;;18.0;;
13057;SDS011;6595;49.578;11.012;2022-11-20T08:14:23;29.7;;;16.7;;
13057;SDS011;6595;49.578;11.012;2022-11-20T08:16:23;29.7;;;16.7;;
13057;SDS011;6595;49.578;11.012;2022-11-20T08:18:24;29.4;;;17.3;;
13057;SDS011;6595;49.578;11.012;2022-11-20T08:20:23;30.1;;;17.0;;
13057;SDS011;6595;49.578;11.012;2022-11-20T08:22:23;29.6;;;17.6;;
13057;SDS011;6595;49.578;11.012;2022-11-20T08:24:23;30.1;;;17.3;;
13057;SDS011;6595;49.578;11.012;2022-11-20T08:26:24;29.3;;;17.8;;
13057;SDS011;6595;49.578;11.012;2022-11-20T08:28:23;29.3;;;17.8;;
13057;SDS011;6595;49.578;11.012;2022-11-20T08:30:24;30.0;;;17.9;;
13057;SDS011;6595;49.578;11.012;2022-11-20T08:32:23;30.5;;;17.7;;
13057;SDS011;6595;49.578;11.012;2022-11-20T08:34:24;29.1;;;16.6;;
13057;SDS011;6595;49.578;11.012;2022-11-20T08:36:24;30.9;;;17.5;;
13057;SDS011;6595;49.578;11.012;2022-11-20T08:38:23;27.3;;;16.7;;
13057;SDS011;6595;49.578;11.012;2022-11-20T08:40:23;27.3;;;16.7;;
13057;SDS011;6595;49.578;11.012;2022-11-20T08:42:24;26.9;;;16.9;;
13057;SDS011;6595;49.578;11.012;2022-11-20T08:44:23;27.1;;;16.6;;
13057;SDS011;6595;49.578;11.012;2022-11-20T08:46:24;27.1;;;16.6;;
13057;SDS011;6595;49.578;11.012;2022-11-20T08:48:23;27.6;;;16.4;;
13057;SDS011;6595;49.578;11.012;2022-11-20T08:50:24;29.2;;;17.1;;
13057;SDS011;6595;49.578;11.012;2022-11-20T08:52:23;28.9;;;17.0;;
13057;SDS011;6595;49.578;11.012;2022-11-20T08:54:24;27.8;;;17.5;;
13057;SDS011;6595;49.578;11.012;2022-11-20T08:56:23;27.8;;;17.5;;
13057;SDS011;6595;49.578;11.012;2022-11-20T08:58:23;27.0;;;16.8;;
13057;SDS011;6595;49.578;11.012;2022-11-20T09:00:23;28.0;;;16.7;;
13057;SDS011;6595;49.578;11.012;2022-11-20T09:02:24;27.4;;;16.4;;
13057;SDS011;6595;49.578;11.012;2022-11-20T09:04:24;26.5;;;15.6;;
13057;SDS011;6595;49.578;11.012;2022-11-20T09:06:23;26.2;;;15.8;;
13057;SDS011;6595;49.578;11.012;2022-11-20T09:08:24;26.2;;;15.8;;
13057;SDS011;6595;49.578;11.012;2022-11-20T09:10:23;25.0;;;15.8;;
13057;SDS011;6595;49.578;11.012;2022-11-20T09:12:24;25.0;;;15.9;;
13057;SDS011;6595;49.578;11.012;2022-11-20T09:14:23;25.0;;;15.9;;
13057;SDS011;6595;49.578;11.012;2022-11-20T09:16:23;23.6;;;15.7;;
13057;SDS011;6595;49.578;11.012;2022-11-20T09:18:24;22.2;;;14.8;;
13057;SDS011;6595;49.578;11.012;2022-11-20T09:20:24;22.2;;;14.8;;
13057;SDS011;6595;49.578;11.012;2022-11-20T09:22:23;23.8;;;15.5;;
13057;SDS011;6595;49.578;11.012;2022-11-20T09:24:24;25.9;;;15.9;;
13057;SDS011;6595;49.578;11.012;2022-11-20T09:26:23;25.9;;;15.9;;
13057;SDS011;6595;49.578;11.012;2022-11-20T09:28:24;27.4;;;16.2;;
13057;SDS011;6595;49.578;11.012;2022-11-20T09:30:24;28.5;;;16.4;;
13057;SDS011;6595;49.578;11.012;2022-11-20T09:32:23;28.5;;;16.4;;
13057;SDS011;6595;49.578;11.012;2022-11-20T09:34:23;25.1;;;15.6;;
13057;SDS011;6595;49.578;11.012;2022-11-20T09:36:23;25.1;;;15.6;;
13057;SDS011;6595;49.578;11.012;2022-11-20T09:38:23;27.0;;;16.1;;
13057;SDS011;6595;49.578;11.012;2022-11-20T09:40:24;24.9;;;15.8;;
13057;SDS011;6595;49.578;11.012;2022-11-20T09:42:27;26.5;;;16.0;;
13057;SDS011;6595;49.578;11.012;2022-11-20T09:44:28;26.5;;;16.0;;
13057;SDS011;6595;49.578;11.012;2022-11-20T09:46:25;27.2;;;15.7;;
13057;SDS011;6595;49.578;11.012;2022-11-20T09:48:26;27.0;;;16.4;;
13057;SDS011;6595;49.578;11.012;2022-11-20T09:50:25;27.9;;;17.1;;
13057;SDS011;6595;49.578;11.012;2022-11-20T09:52:27;27.9;;;17.1;;
13057;SDS011;6595;49.578;11.012;2022-11-20T09:54:25;27.1;;;15.9;;
13057;SDS011;6595;49.578;11.012;2022-11-20T09:56:24;27.3;;;16.4;;
13057;SDS011;6595;49.578;11.012;2022-11-20T09:58:25;27.6;;;15.9;;
13057;SDS011;6595;49.578;11.012;2022-11-20T10:00:24;23.8;;;15.3;;
13057;SDS011;6595;49.578;11.012;2022-11-20T10:02:26;26.6;;;16.0;;
13057;SDS011;6595;49.578;11.012;2022-11-20T10:04:23;26.6;;;16.0;;
13057;SDS011;6595;49.578;11.012;2022-11-20T10:06:24;26.2;;;16.4;;
13057;SDS011;6595;49.578;11.012;2022-11-20T10:08:24;25.8;;;15.9;;
13057;SDS011;6595;49.578;11.012;2022-11-20T10:10:28;28.8;;;17.7;;
13057;SDS011;6595;49.578;11.012;2022-11-20T10:12:26;29.8;;;17.8;;
13057;SDS011;6595;49.578;11.012;2022-11-20T10:14:26;29.8;;;17.8;;
13057;SDS011;6595;49.578;11.012;2022-11-20T10:16:26;29.6;;;18.4;;
13057;SDS011;6595;49.578;11.012;2022-11-20T10:18:27;30.1;;;18.5;;
13057;SDS011;6595;49.578;11.012;2022-11-20T10:20:25;31.9;;;18.4;;
13057;SDS011;6595;49.578;11.012;2022-11-20T10:22:28;32.0;;;19.0;;
13057;SDS011;6595;49.578;11.012;2022-11-20T10:24:26;32.0;;;19.0;;
13057;SDS011;6595;49.578;11.012;2022-11-20T10:26:26;31.5;;;19.3;;
13057;SDS011;6595;49.578;11.012;2022-11-20T10:28:28;31.9;;;19.2;;
13057;SDS011;6595;49.578;11.012;2022-11-20T10:30:24;31.9;;;19.2;;
13057;SDS011;6595;49.578;11.012;2022-11-20T10:32:24;32.8;;;19.8;;
13057;SDS011;6595;49.578;11.012;2022-11-20T10:34:24;31.6;;;19.8;;
13057;SDS011;6595;49.578;11.012;2022-11-20T10:36:23;32.1;;;19.6;;
13057;SDS011;6595;49.578;11.012;2022-11-20T10:38:24;32.1;;;19.6;;
13057;SDS011;6595;49.578;11.012;2022-11-20T10:40:26;32.0;;;20.1;;
13057;SDS011;6595;49.578;11.012;2022-11-20T10:42:25;32.0;;;20.1;;
13057;SDS011;6595;49.578;11.012;2022-11-20T10:44:26;30.3;;;20.0;;
13057;SDS011;6595;49.578;11.012;2022-11-20T10:46:24;32.1;;;20.2;;
13057;SDS011;6595;49.578;11.012;2022-11-20T10:48:24;37.3;;;22.2;;
13057;SDS011;6595;49.578;11.012;2022-11-20T10:50:24;34.4;;;21.3;;
13057;SDS011;6595;49.578;11.012;2022-11-20T10:52:25;34.4;;;21.3;;
13057;SDS011;6595;49.578;11.012;2022-11-20T10:54:26;32.7;;;21.6;;
13057;SDS011;6595;49.578;11.012;2022-11-20T10:56:25;30.7;;;20.1;;
13057;SDS011;6595;49.578;11.012;2022-11-20T10:58:25;34.0;;;21.4;;
13057;SDS011;6595;49.578;11.012;2022-11-20T11:00:24;34.0;;;21.4;;
13057;SDS011;6595;49.578;11.012;2022-11-20T11:02:24;36.0;;;21.8;;
13057;SDS011;6595;49.578;11.012;2022-11-20T11:04:28;31.5;;;20.4;;
13057;SDS011;6595;49.578;11.012;2022-11-20T11:06:25;33.3;;;21.1;;
13057;SDS011;6595;49.578;11.012;2022-11-20T11:08:24;34.6;;;20.5;;
13057;SDS011;6595;49.578;11.012;2022-11-20T11:10:24;34.6;;;20.5;;
13057;SDS011;6595;49.578;11.012;2022-11-20T11:12:25;37.6;;;23.1;;
13057;SDS011;6595;49.578;11.012;2022-11-20T11:14:23;37.5;;;21.9;;
13057;SDS011;6595;49.578;11.012;2022-11-20T11:16:25;42.2;;;23.5;;
13057;SDS011;6595;49.578;11.012;2022-11-20T11:18:24;37.6;;;22.3;;
13057;SDS011;6595;49.578;11.012;2022-11-20T11:20:24;37.6;;;22.3;;
13057;SDS011;6595;49.578;11.012;2022-11-20T11:22:23;40.5;;;23.5;;
13057;SDS011;6595;49.578;11.012;2022-11-20T11:24:24;40.5;;;22.2;;
13057;SDS011;6595;49.578;11.012;2022-11-20T11:26:23;40.5;;;22.2;;
13057;SDS011;6595;49.578;11.012;2022-11-20T11:28:24;37.8;;;22.8;;
13057;SDS011;6595;49.578;11.012;2022-11-20T11:30:24;36.7;;;21.7;;
13057;SDS011;6595;49.578;11.012;2022-11-20T11:32:23;36.8;;;21.3;;
13057;SDS011;6595;49.578;11.012;2022-11-20T11:34:23;36.3;;;22.1;;
13057;SDS011;6595;49.578;11.012;2022-11-20T11:36:24;36.4;;;23.2;;
13057;SDS011;6595;49.578;11.012;2022-11-20T11:38:27;33.8;;;21.2;;
13057;SDS011;6595;49.578;11.012;2022-11-20T11:40:24;29.8;;;20.2;;
13057;SDS011;6595;49.578;11.012;2022-11-20T11:42:23;29.8;;;20.2;;
13057;SDS011;6595;49.578;11.012;2022-11-20T11:44:24;29.8;;;20.2;;
13057;SDS011;6595;49.578;11.012;2022-11-20T11:46:25;27.5;;;18.7;;
13057;SDS011;6595;49.578;11.012;2022-11-20T11:48:23;25.9;;;17.9;;
13057;SDS011;6595;49.578;11.012;2022-11-20T11:50:24;26.7;;;18.3;;
13057;SDS011;6595;49.578;11.012;2022-11-20T11:52:23;26.7;;;18.3;;
13057;SDS011;6595;49.578;11.012;2022-11-20T11:54:24;24.1;;;17.2;;
13057;SDS011;6595;49.578;11.012;2022-11-20T11:56:23;24.4;;;17.1;;
13057;SDS011;6595;49.578;11.012;2022-11-20T11:58:34;24.4;;;17.1;;
13057;SDS011;6595;49.578;11.012;2022-11-20T12:00:23;21.4;;;15.8;;
13057;SDS011;6595;49.578;11.012;2022-11-20T12:02:27;21.3;;;15.8;;
13057;SDS011;6595;49.578;11.012;2022-11-20T12:04:27;19.5;;;15.1;;